Weather at Hude Ravne - Dole pri Litiji Airfield

Public forecast

Using degrees Celsius for public forecast. Weather courtesy of forecast.io.

Closest aviation weather report (METAR) to Hude Ravne - Dole pri Litiji Airfield

Closest report is Cerklje ob Krki Air Base, 21.6 nm (39.9 km) ESE.

2024/05/22 21:30 (retrieved 21 minutes ago)

LJCE 222130Z AUTO 19002KT 9999 NSC 14/12 Q1014

Closest aviation forecast (TAF) to Hude Ravne - Dole pri Litiji Airfield

Closest forecast is Ljubljana Jože Pučnik Airport, 27.4 nm (50.7 km) WNW.

2024/05/22 18:06 (retrieved 4 hours ago)

TAF LJLJ 221700Z 2218/2318 VRB02KT 9999 FEW040 PROB30 TEMPO 2218/2221 SHRA FEW035TCU PROB30 TEMPO 2302/2306 0500 FG VV002 TEMPO 2309/2318 SHRA FEW035TCU SCT050 PROB30 TEMPO 2310/2318 5000 TSRA FEW035CB BKN050